sensor_id;sensor_type;location;lat;lon;timestamp;temperature;humidity
57857;DHT22;43683;48.650;9.290;2023-04-06T00:00:37;-2.00;62.60
57857;DHT22;43683;48.650;9.290;2023-04-06T00:03:02;-2.10;62.60
57857;DHT22;43683;48.650;9.290;2023-04-06T00:05:28;-2.10;62.80
57857;DHT22;43683;48.650;9.290;2023-04-06T00:07:57;-2.20;62.90
57857;DHT22;43683;48.650;9.290;2023-04-06T00:10:22;-2.20;62.80
57857;DHT22;43683;48.650;9.290;2023-04-06T00:12:48;-2.20;62.90
57857;DHT22;43683;48.650;9.290;2023-04-06T00:15:13;-2.20;63.10
57857;DHT22;43683;48.650;9.290;2023-04-06T00:17:39;-2.20;63.10
57857;DHT22;43683;48.650;9.290;2023-04-06T00:20:05;-2.30;63.30
57857;DHT22;43683;48.650;9.290;2023-04-06T00:22:32;-2.30;63.50
57857;DHT22;43683;48.650;9.290;2023-04-06T00:24:57;-2.30;63.40
57857;DHT22;43683;48.650;9.290;2023-04-06T00:27:23;-2.30;63.40
57857;DHT22;43683;48.650;9.290;2023-04-06T00:29:48;-2.40;63.60
57857;DHT22;43683;48.650;9.290;2023-04-06T00:32:14;-2.30;63.70
57857;DHT22;43683;48.650;9.290;2023-04-06T00:34:39;-2.40;63.70
57857;DHT22;43683;48.650;9.290;2023-04-06T00:37:05;-2.30;63.80
57857;DHT22;43683;48.650;9.290;2023-04-06T00:39:31;-2.40;63.80
57857;DHT22;43683;48.650;9.290;2023-04-06T00:41:56;-2.40;64.00
57857;DHT22;43683;48.650;9.290;2023-04-06T00:44:22;-2.40;64.10
57857;DHT22;43683;48.650;9.290;2023-04-06T00:46:48;-2.40;64.20
57857;DHT22;43683;48.650;9.290;2023-04-06T00:49:13;-2.50;64.30
57857;DHT22;43683;48.650;9.290;2023-04-06T00:51:39;-2.40;64.40
57857;DHT22;43683;48.650;9.290;2023-04-06T00:54:05;-2.40;64.40
57857;DHT22;43683;48.650;9.290;2023-04-06T00:56:31;-2.50;64.40
57857;DHT22;43683;48.650;9.290;2023-04-06T00:58:56;-2.50;64.50
57857;DHT22;43683;48.650;9.290;2023-04-06T01:01:23;-2.50;64.50
57857;DHT22;43683;48.650;9.290;2023-04-06T01:03:49;-2.50;64.50
57857;DHT22;43683;48.650;9.290;2023-04-06T01:06:15;-2.50;64.60
57857;DHT22;43683;48.650;9.290;2023-04-06T01:08:41;-2.60;64.80
57857;DHT22;43683;48.650;9.290;2023-04-06T01:11:06;-2.60;64.80
57857;DHT22;43683;48.650;9.290;2023-04-06T01:13:32;-2.60;65.00
57857;DHT22;43683;48.650;9.290;2023-04-06T01:15:58;-2.70;65.00
57857;DHT22;43683;48.650;9.290;2023-04-06T01:18:27;-2.60;65.10
57857;DHT22;43683;48.650;9.290;2023-04-06T01:20:53;-2.70;65.20
57857;DHT22;43683;48.650;9.290;2023-04-06T01:23:18;-2.70;65.30
57857;DHT22;43683;48.650;9.290;2023-04-06T01:25:44;-2.80;65.40
57857;DHT22;43683;48.650;9.290;2023-04-06T01:28:10;-2.80;65.50
57857;DHT22;43683;48.650;9.290;2023-04-06T01:30:35;-2.80;65.70
57857;DHT22;43683;48.650;9.290;2023-04-06T01:33:01;-2.80;65.70
57857;DHT22;43683;48.650;9.290;2023-04-06T01:35:27;-2.90;65.80
57857;DHT22;43683;48.650;9.290;2023-04-06T01:37:53;-2.90;65.90
57857;DHT22;43683;48.650;9.290;2023-04-06T01:40:19;-2.90;66.00
57857;DHT22;43683;48.650;9.290;2023-04-06T01:42:44;-3.00;66.10
57857;DHT22;43683;48.650;9.290;2023-04-06T01:45:10;-3.00;66.20
57857;DHT22;43683;48.650;9.290;2023-04-06T01:47:36;-3.00;66.30
57857;DHT22;43683;48.650;9.290;2023-04-06T01:50:01;-3.10;66.40
57857;DHT22;43683;48.650;9.290;2023-04-06T01:52:28;-3.10;66.40
57857;DHT22;43683;48.650;9.290;2023-04-06T01:54:54;-3.10;66.60
57857;DHT22;43683;48.650;9.290;2023-04-06T01:57:19;-3.20;66.60
57857;DHT22;43683;48.650;9.290;2023-04-06T01:59:45;-3.20;66.50
57857;DHT22;43683;48.650;9.290;2023-04-06T02:02:11;-3.10;66.50
57857;DHT22;43683;48.650;9.290;2023-04-06T02:04:38;-3.10;66.40
57857;DHT22;43683;48.650;9.290;2023-04-06T02:07:03;-3.10;66.40
57857;DHT22;43683;48.650;9.290;2023-04-06T02:09:29;-3.10;66.50
57857;DHT22;43683;48.650;9.290;2023-04-06T02:11:55;-3.10;66.40
57857;DHT22;43683;48.650;9.290;2023-04-06T02:14:21;-2.90;66.30
57857;DHT22;43683;48.650;9.290;2023-04-06T02:16:46;-2.90;66.30
57857;DHT22;43683;48.650;9.290;2023-04-06T02:19:12;-3.00;66.40
57857;DHT22;43683;48.650;9.290;2023-04-06T02:21:37;-3.00;66.70
57857;DHT22;43683;48.650;9.290;2023-04-06T02:24:03;-3.10;66.90
57857;DHT22;43683;48.650;9.290;2023-04-06T02:26:28;-3.10;67.10
57857;DHT22;43683;48.650;9.290;2023-04-06T02:28:54;-3.20;67.90
57857;DHT22;43683;48.650;9.290;2023-04-06T02:31:20;-3.20;67.30
57857;DHT22;43683;48.650;9.290;2023-04-06T02:33:45;-3.30;67.50
57857;DHT22;43683;48.650;9.290;2023-04-06T02:36:11;-3.30;68.50
57857;DHT22;43683;48.650;9.290;2023-04-06T02:38:36;-3.40;67.80
57857;DHT22;43683;48.650;9.290;2023-04-06T02:41:02;-3.30;67.90
57857;DHT22;43683;48.650;9.290;2023-04-06T02:43:27;-3.40;67.90
57857;DHT22;43683;48.650;9.290;2023-04-06T02:45:53;-3.50;68.00
57857;DHT22;43683;48.650;9.290;2023-04-06T02:48:18;-3.60;68.20
57857;DHT22;43683;48.650;9.290;2023-04-06T02:50:44;-3.60;68.40
57857;DHT22;43683;48.650;9.290;2023-04-06T02:53:10;-3.60;68.40
57857;DHT22;43683;48.650;9.290;2023-04-06T02:55:35;-3.70;68.50
57857;DHT22;43683;48.650;9.290;2023-04-06T02:58:01;-3.80;68.50
57857;DHT22;43683;48.650;9.290;2023-04-06T03:00:26;-3.80;68.60
57857;DHT22;43683;48.650;9.290;2023-04-06T03:02:52;-3.90;68.70
57857;DHT22;43683;48.650;9.290;2023-04-06T03:05:17;-3.80;68.80
57857;DHT22;43683;48.650;9.290;2023-04-06T03:07:43;-3.80;68.80
57857;DHT22;43683;48.650;9.290;2023-04-06T03:10:09;-3.90;68.90
57857;DHT22;43683;48.650;9.290;2023-04-06T03:12:35;-3.90;69.00
57857;DHT22;43683;48.650;9.290;2023-04-06T03:15:00;-3.90;69.10
57857;DHT22;43683;48.650;9.290;2023-04-06T03:17:26;-3.90;68.90
57857;DHT22;43683;48.650;9.290;2023-04-06T03:19:51;-3.90;68.90
57857;DHT22;43683;48.650;9.290;2023-04-06T03:22:17;-3.80;68.90
57857;DHT22;43683;48.650;9.290;2023-04-06T03:24:42;-3.80;68.90
57857;DHT22;43683;48.650;9.290;2023-04-06T03:27:08;-3.80;68.90
57857;DHT22;43683;48.650;9.290;2023-04-06T03:29:33;-3.80;69.00
57857;DHT22;43683;48.650;9.290;2023-04-06T03:31:59;-3.80;69.00
57857;DHT22;43683;48.650;9.290;2023-04-06T03:34:24;-3.80;69.00
57857;DHT22;43683;48.650;9.290;2023-04-06T03:36:50;-3.90;69.20
57857;DHT22;43683;48.650;9.290;2023-04-06T03:39:15;-3.90;69.40
57857;DHT22;43683;48.650;9.290;2023-04-06T03:41:41;-4.00;69.70
57857;DHT22;43683;48.650;9.290;2023-04-06T03:44:06;-4.00;69.80
57857;DHT22;43683;48.650;9.290;2023-04-06T03:46:32;-4.00;69.90
57857;DHT22;43683;48.650;9.290;2023-04-06T03:48:57;-4.00;69.70
57857;DHT22;43683;48.650;9.290;2023-04-06T03:51:23;-3.90;69.70
57857;DHT22;43683;48.650;9.290;2023-04-06T03:53:48;-3.90;69.80
57857;DHT22;43683;48.650;9.290;2023-04-06T03:56:14;-3.90;69.80
57857;DHT22;43683;48.650;9.290;2023-04-06T03:58:40;-3.90;69.90
57857;DHT22;43683;48.650;9.290;2023-04-06T04:01:05;-3.90;70.20
57857;DHT22;43683;48.650;9.290;2023-04-06T04:03:31;-3.90;69.90
57857;DHT22;43683;48.650;9.290;2023-04-06T04:05:56;-3.90;69.90
57857;DHT22;43683;48.650;9.290;2023-04-06T04:08:22;-3.90;70.00
57857;DHT22;43683;48.650;9.290;2023-04-06T04:10:48;-4.00;70.00
57857;DHT22;43683;48.650;9.290;2023-04-06T04:13:14;-4.00;70.20
57857;DHT22;43683;48.650;9.290;2023-04-06T04:15:39;-4.00;70.20
57857;DHT22;43683;48.650;9.290;2023-04-06T04:18:05;-4.00;70.30
57857;DHT22;43683;48.650;9.290;2023-04-06T04:20:30;-4.00;70.40
57857;DHT22;43683;48.650;9.290;2023-04-06T04:22:56;-4.00;70.50
57857;DHT22;43683;48.650;9.290;2023-04-06T04:25:22;-4.00;70.50
57857;DHT22;43683;48.650;9.290;2023-04-06T04:27:48;-3.90;70.60
57857;DHT22;43683;48.650;9.290;2023-04-06T04:30:13;-3.90;70.50
57857;DHT22;43683;48.650;9.290;2023-04-06T04:32:39;-3.80;70.50
57857;DHT22;43683;48.650;9.290;2023-04-06T04:35:05;-3.80;70.50
57857;DHT22;43683;48.650;9.290;2023-04-06T04:37:30;-3.80;70.50
57857;DHT22;43683;48.650;9.290;2023-04-06T04:39:56;-3.80;70.50
57857;DHT22;43683;48.650;9.290;2023-04-06T04:42:22;-3.70;70.40
57857;DHT22;43683;48.650;9.290;2023-04-06T04:44:47;-3.70;70.40
57857;DHT22;43683;48.650;9.290;2023-04-06T04:47:13;-3.70;70.50
57857;DHT22;43683;48.650;9.290;2023-04-06T04:49:38;-3.70;70.60
57857;DHT22;43683;48.650;9.290;2023-04-06T04:52:03;-3.70;70.70
57857;DHT22;43683;48.650;9.290;2023-04-06T04:54:29;-3.70;70.80
57857;DHT22;43683;48.650;9.290;2023-04-06T04:56:55;-3.70;70.80
57857;DHT22;43683;48.650;9.290;2023-04-06T04:59:20;-3.70;70.80
57857;DHT22;43683;48.650;9.290;2023-04-06T05:01:46;-3.70;70.80
57857;DHT22;43683;48.650;9.290;2023-04-06T05:04:11;-3.70;70.90
57857;DHT22;43683;48.650;9.290;2023-04-06T05:06:37;-3.70;71.00
57857;DHT22;43683;48.650;9.290;2023-04-06T05:09:02;-3.70;70.90
57857;DHT22;43683;48.650;9.290;2023-04-06T05:11:28;-3.60;70.80
57857;DHT22;43683;48.650;9.290;2023-04-06T05:13:54;-3.50;70.80
57857;DHT22;43683;48.650;9.290;2023-04-06T05:16:19;-3.50;70.80
57857;DHT22;43683;48.650;9.290;2023-04-06T05:18:45;-3.40;70.70
57857;DHT22;43683;48.650;9.290;2023-04-06T05:21:11;-3.30;70.80
57857;DHT22;43683;48.650;9.290;2023-04-06T05:23:37;-3.20;70.70
57857;DHT22;43683;48.650;9.290;2023-04-06T05:26:02;-3.20;70.60
57857;DHT22;43683;48.650;9.290;2023-04-06T05:28:28;-3.10;70.60
57857;DHT22;43683;48.650;9.290;2023-04-06T05:30:53;-3.00;70.60
57857;DHT22;43683;48.650;9.290;2023-04-06T05:33:19;-2.90;70.50
57857;DHT22;43683;48.650;9.290;2023-04-06T05:35:44;-2.90;70.40
57857;DHT22;43683;48.650;9.290;2023-04-06T05:38:10;-2.80;70.30
57857;DHT22;43683;48.650;9.290;2023-04-06T05:40:37;-2.70;70.30
57857;DHT22;43683;48.650;9.290;2023-04-06T05:43:03;-2.70;70.30
57857;DHT22;43683;48.650;9.290;2023-04-06T05:45:29;-2.50;70.30
57857;DHT22;43683;48.650;9.290;2023-04-06T05:47:55;-2.50;70.20
57857;DHT22;43683;48.650;9.290;2023-04-06T05:50:20;-2.50;70.20
57857;DHT22;43683;48.650;9.290;2023-04-06T05:52:46;-2.40;70.30
57857;DHT22;43683;48.650;9.290;2023-04-06T05:55:12;-2.30;70.20
57857;DHT22;43683;48.650;9.290;2023-04-06T05:57:37;-2.20;70.20
57857;DHT22;43683;48.650;9.290;2023-04-06T06:00:04;-2.10;70.20
57857;DHT22;43683;48.650;9.290;2023-04-06T06:02:31;-2.00;70.20
57857;DHT22;43683;48.650;9.290;2023-04-06T06:04:57;-1.90;70.10
57857;DHT22;43683;48.650;9.290;2023-04-06T06:07:23;-1.70;70.10
57857;DHT22;43683;48.650;9.290;2023-04-06T06:09:49;-1.60;70.00
57857;DHT22;43683;48.650;9.290;2023-04-06T06:12:14;-1.50;69.90
57857;DHT22;43683;48.650;9.290;2023-04-06T06:14:40;-1.40;70.00
57857;DHT22;43683;48.650;9.290;2023-04-06T06:17:05;-1.30;69.90
57857;DHT22;43683;48.650;9.290;2023-04-06T06:19:31;-1.20;69.80
57857;DHT22;43683;48.650;9.290;2023-04-06T06:21:56;-1.00;69.80
57857;DHT22;43683;48.650;9.290;2023-04-06T06:24:22;-1.00;69.70
57857;DHT22;43683;48.650;9.290;2023-04-06T06:26:47;-0.80;69.80
57857;DHT22;43683;48.650;9.290;2023-04-06T06:29:14;-0.70;69.70
57857;DHT22;43683;48.650;9.290;2023-04-06T06:31:40;-0.60;69.60
57857;DHT22;43683;48.650;9.290;2023-04-06T06:34:05;-0.50;69.40
57857;DHT22;43683;48.650;9.290;2023-04-06T06:36:31;-0.30;69.40
57857;DHT22;43683;48.650;9.290;2023-04-06T06:38:57;-0.20;69.30
57857;DHT22;43683;48.650;9.290;2023-04-06T06:41:24;-0.10;69.20
57857;DHT22;43683;48.650;9.290;2023-04-06T06:43:50;0.10;69.30
57857;DHT22;43683;48.650;9.290;2023-04-06T06:46:15;0.20;69.10
57857;DHT22;43683;48.650;9.290;2023-04-06T06:48:41;0.40;69.00
57857;DHT22;43683;48.650;9.290;2023-04-06T06:51:06;0.50;68.80
57857;DHT22;43683;48.650;9.290;2023-04-06T06:53:32;0.70;68.60
57857;DHT22;43683;48.650;9.290;2023-04-06T06:55:57;0.90;68.50
57857;DHT22;43683;48.650;9.290;2023-04-06T06:58:23;1.10;68.50
57857;DHT22;43683;48.650;9.290;2023-04-06T07:00:48;1.30;68.60
57857;DHT22;43683;48.650;9.290;2023-04-06T07:03:14;1.40;68.70
57857;DHT22;43683;48.650;9.290;2023-04-06T07:05:46;1.60;68.90
57857;DHT22;43683;48.650;9.290;2023-04-06T07:08:16;1.90;69.00
57857;DHT22;43683;48.650;9.290;2023-04-06T07:10:41;2.20;69.90
57857;DHT22;43683;48.650;9.290;2023-04-06T07:13:07;2.40;69.40
57857;DHT22;43683;48.650;9.290;2023-04-06T07:15:32;2.70;69.80
57857;DHT22;43683;48.650;9.290;2023-04-06T07:17:58;3.00;70.00
57857;DHT22;43683;48.650;9.290;2023-04-06T07:20:24;3.40;70.20
57857;DHT22;43683;48.650;9.290;2023-04-06T07:22:50;3.60;70.30
57857;DHT22;43683;48.650;9.290;2023-04-06T07:25:15;4.00;70.40
57857;DHT22;43683;48.650;9.290;2023-04-06T07:27:41;4.30;70.40
57857;DHT22;43683;48.650;9.290;2023-04-06T07:30:07;4.70;70.40
57857;DHT22;43683;48.650;9.290;2023-04-06T07:32:32;5.10;70.30
57857;DHT22;43683;48.650;9.290;2023-04-06T07:34:59;5.30;69.70
57857;DHT22;43683;48.650;9.290;2023-04-06T07:37:25;5.60;69.50
57857;DHT22;43683;48.650;9.290;2023-04-06T07:39:50;5.90;69.30
57857;DHT22;43683;48.650;9.290;2023-04-06T07:42:16;6.20;69.00
57857;DHT22;43683;48.650;9.290;2023-04-06T07:44:41;6.60;68.50
57857;DHT22;43683;48.650;9.290;2023-04-06T07:47:07;6.80;68.30
57857;DHT22;43683;48.650;9.290;2023-04-06T07:49:32;7.00;67.70
57857;DHT22;43683;48.650;9.290;2023-04-06T07:51:58;7.30;67.20
57857;DHT22;43683;48.650;9.290;2023-04-06T07:54:23;7.70;66.80
57857;DHT22;43683;48.650;9.290;2023-04-06T07:56:49;7.90;66.50
57857;DHT22;43683;48.650;9.290;2023-04-06T07:59:14;8.10;65.60
57857;DHT22;43683;48.650;9.290;2023-04-06T08:01:40;8.30;65.20
57857;DHT22;43683;48.650;9.290;2023-04-06T08:04:06;8.60;64.60
57857;DHT22;43683;48.650;9.290;2023-04-06T08:06:31;8.70;64.00
57857;DHT22;43683;48.650;9.290;2023-04-06T08:08:57;8.90;63.40
57857;DHT22;43683;48.650;9.290;2023-04-06T08:11:22;9.10;62.90
57857;DHT22;43683;48.650;9.290;2023-04-06T08:13:48;9.30;62.30
57857;DHT22;43683;48.650;9.290;2023-04-06T08:16:13;9.50;61.50
57857;DHT22;43683;48.650;9.290;2023-04-06T08:18:39;9.60;60.90
57857;DHT22;43683;48.650;9.290;2023-04-06T08:21:04;9.70;60.70
57857;DHT22;43683;48.650;9.290;2023-04-06T08:23:30;9.80;60.20
57857;DHT22;43683;48.650;9.290;2023-04-06T08:25:55;9.90;59.70
57857;DHT22;43683;48.650;9.290;2023-04-06T08:28:21;10.10;59.10
57857;DHT22;43683;48.650;9.290;2023-04-06T08:30:47;10.40;58.40
57857;DHT22;43683;48.650;9.290;2023-04-06T08:33:13;10.40;57.80
57857;DHT22;43683;48.650;9.290;2023-04-06T08:35:38;10.40;57.30
57857;DHT22;43683;48.650;9.290;2023-04-06T08:38:04;10.50;56.90
57857;DHT22;43683;48.650;9.290;2023-04-06T08:40:30;10.60;56.60
57857;DHT22;43683;48.650;9.290;2023-04-06T08:42:56;10.60;56.10
57857;DHT22;43683;48.650;9.290;2023-04-06T08:45:22;10.80;55.80
57857;DHT22;43683;48.650;9.290;2023-04-06T08:47:51;10.90;54.80
57857;DHT22;43683;48.650;9.290;2023-04-06T08:50:18;11.20;54.30
57857;DHT22;43683;48.650;9.290;2023-04-06T08:52:46;11.40;53.60
57857;DHT22;43683;48.650;9.290;2023-04-06T08:55:11;11.50;53.20
57857;DHT22;43683;48.650;9.290;2023-04-06T08:57:38;11.60;52.80
57857;DHT22;43683;48.650;9.290;2023-04-06T09:00:05;11.60;52.50
57857;DHT22;43683;48.650;9.290;2023-04-06T09:02:32;11.90;52.40
57857;DHT22;43683;48.650;9.290;2023-04-06T09:04:58;12.00;52.10
57857;DHT22;43683;48.650;9.290;2023-04-06T09:07:25;12.20;51.70
57857;DHT22;43683;48.650;9.290;2023-04-06T09:09:50;12.30;51.20
57857;DHT22;43683;48.650;9.290;2023-04-06T09:12:30;12.40;51.10
57857;DHT22;43683;48.650;9.290;2023-04-06T09:14:56;12.50;50.40
57857;DHT22;43683;48.650;9.290;2023-04-06T09:17:28;12.60;50.80
57857;DHT22;43683;48.650;9.290;2023-04-06T09:19:54;12.90;50.10
57857;DHT22;43683;48.650;9.290;2023-04-06T09:22:20;13.10;50.00
57857;DHT22;43683;48.650;9.290;2023-04-06T09:24:48;13.10;49.50
57857;DHT22;43683;48.650;9.290;2023-04-06T09:27:14;13.00;49.10
57857;DHT22;43683;48.650;9.290;2023-04-06T09:29:44;13.20;49.00
57857;DHT22;43683;48.650;9.290;2023-04-06T09:32:11;13.50;48.70
57857;DHT22;43683;48.650;9.290;2023-04-06T09:34:37;13.50;48.80
57857;DHT22;43683;48.650;9.290;2023-04-06T09:37:13;13.60;48.50
57857;DHT22;43683;48.650;9.290;2023-04-06T09:39:39;13.80;48.40
57857;DHT22;43683;48.650;9.290;2023-04-06T09:42:05;13.90;48.50
57857;DHT22;43683;48.650;9.290;2023-04-06T09:44:31;14.20;48.20
57857;DHT22;43683;48.650;9.290;2023-04-06T09:46:56;14.50;47.90
57857;DHT22;43683;48.650;9.290;2023-04-06T09:49:22;14.70;47.40
57857;DHT22;43683;48.650;9.290;2023-04-06T09:51:54;15.00;46.90
57857;DHT22;43683;48.650;9.290;2023-04-06T09:54:31;15.20;46.20
57857;DHT22;43683;48.650;9.290;2023-04-06T10:05:13;15.80;44.60
57857;DHT22;43683;48.650;9.290;2023-04-06T10:07:40;16.10;43.60
57857;DHT22;43683;48.650;9.290;2023-04-06T10:10:07;16.20;43.30
57857;DHT22;43683;48.650;9.290;2023-04-06T10:12:33;16.20;43.20
57857;DHT22;43683;48.650;9.290;2023-04-06T10:14:59;16.30;43.30
57857;DHT22;43683;48.650;9.290;2023-04-06T10:17:24;16.40;42.80
57857;DHT22;43683;48.650;9.290;2023-04-06T10:19:55;16.50;42.20
57857;DHT22;43683;48.650;9.290;2023-04-06T10:22:29;16.70;41.60
57857;DHT22;43683;48.650;9.290;2023-04-06T10:24:58;16.60;41.50
57857;DHT22;43683;48.650;9.290;2023-04-06T10:27:30;16.50;41.50
57857;DHT22;43683;48.650;9.290;2023-04-06T10:30:04;16.60;40.50
57857;DHT22;43683;48.650;9.290;2023-04-06T10:35:08;16.30;39.40
57857;DHT22;43683;48.650;9.290;2023-04-06T10:40:21;16.00;38.80
57857;DHT22;43683;48.650;9.290;2023-04-06T10:42:47;16.10;38.60
57857;DHT22;43683;48.650;9.290;2023-04-06T10:45:19;16.10;38.40
57857;DHT22;43683;48.650;9.290;2023-04-06T10:47:46;16.20;37.90
57857;DHT22;43683;48.650;9.290;2023-04-06T10:50:14;16.20;38.00
57857;DHT22;43683;48.650;9.290;2023-04-06T10:52:41;15.90;37.50
57857;DHT22;43683;48.650;9.290;2023-04-06T10:55:08;15.60;37.40
57857;DHT22;43683;48.650;9.290;2023-04-06T10:57:35;15.50;37.20
57857;DHT22;43683;48.650;9.290;2023-04-06T11:00:06;15.50;37.10
57857;DHT22;43683;48.650;9.290;2023-04-06T11:02:32;15.40;36.70
57857;DHT22;43683;48.650;9.290;2023-04-06T11:04:58;15.80;36.60
57857;DHT22;43683;48.650;9.290;2023-04-06T11:07:25;16.30;36.20
57857;DHT22;43683;48.650;9.290;2023-04-06T11:09:52;16.40;35.50
57857;DHT22;43683;48.650;9.290;2023-04-06T11:12:25;16.40;35.20
57857;DHT22;43683;48.650;9.290;2023-04-06T11:15:02;16.20;34.80
57857;DHT22;43683;48.650;9.290;2023-04-06T11:17:36;16.10;34.40
57857;DHT22;43683;48.650;9.290;2023-04-06T11:20:03;16.20;34.70
57857;DHT22;43683;48.650;9.290;2023-04-06T11:22:30;16.30;34.40
57857;DHT22;43683;48.650;9.290;2023-04-06T11:25:08;16.30;34.00
57857;DHT22;43683;48.650;9.290;2023-04-06T11:27:34;16.10;33.50
57857;DHT22;43683;48.650;9.290;2023-04-06T11:30:01;16.00;33.70
57857;DHT22;43683;48.650;9.290;2023-04-06T11:32:27;15.90;33.50
57857;DHT22;43683;48.650;9.290;2023-04-06T11:34:53;16.20;33.60
57857;DHT22;43683;48.650;9.290;2023-04-06T11:37:18;16.40;33.40
57857;DHT22;43683;48.650;9.290;2023-04-06T11:39:52;16.50;33.50
57857;DHT22;43683;48.650;9.290;2023-04-06T11:42:27;16.40;32.90
57857;DHT22;43683;48.650;9.290;2023-04-06T11:44:58;16.70;32.80
57857;DHT22;43683;48.650;9.290;2023-04-06T11:47:28;16.70;33.00
57857;DHT22;43683;48.650;9.290;2023-04-06T11:49:54;16.90;32.50
57857;DHT22;43683;48.650;9.290;2023-04-06T11:52:22;17.20;32.60
57857;DHT22;43683;48.650;9.290;2023-04-06T11:54:49;17.20;33.30
57857;DHT22;43683;48.650;9.290;2023-04-06T11:57:16;16.90;32.00
57857;DHT22;43683;48.650;9.290;2023-04-06T11:59:42;16.80;32.10
57857;DHT22;43683;48.650;9.290;2023-04-06T12:02:09;16.90;32.00
57857;DHT22;43683;48.650;9.290;2023-04-06T12:04:35;16.80;31.30
57857;DHT22;43683;48.650;9.290;2023-04-06T12:07:00;16.80;31.60
57857;DHT22;43683;48.650;9.290;2023-04-06T12:09:26;17.20;31.30
57857;DHT22;43683;48.650;9.290;2023-04-06T12:11:52;17.30;30.90
57857;DHT22;43683;48.650;9.290;2023-04-06T12:14:17;17.20;30.90
57857;DHT22;43683;48.650;9.290;2023-04-06T12:16:43;17.30;31.60
57857;DHT22;43683;48.650;9.290;2023-04-06T12:19:09;17.40;30.70
57857;DHT22;43683;48.650;9.290;2023-04-06T12:21:35;17.40;30.60
57857;DHT22;43683;48.650;9.290;2023-04-06T12:24:04;17.20;30.20
57857;DHT22;43683;48.650;9.290;2023-04-06T12:26:31;17.00;30.20
57857;DHT22;43683;48.650;9.290;2023-04-06T12:28:57;16.90;30.00
57857;DHT22;43683;48.650;9.290;2023-04-06T12:31:28;16.60;30.00
57857;DHT22;43683;48.650;9.290;2023-04-06T12:33:53;16.30;30.00
57857;DHT22;43683;48.650;9.290;2023-04-06T12:36:20;16.50;29.70
57857;DHT22;43683;48.650;9.290;2023-04-06T12:38:49;16.50;29.50
57857;DHT22;43683;48.650;9.290;2023-04-06T12:41:16;16.10;29.50
57857;DHT22;43683;48.650;9.290;2023-04-06T12:43:42;16.20;29.60
57857;DHT22;43683;48.650;9.290;2023-04-06T12:46:08;16.40;29.40
57857;DHT22;43683;48.650;9.290;2023-04-06T12:48:34;16.90;29.30
57857;DHT22;43683;48.650;9.290;2023-04-06T12:51:02;17.10;29.00
57857;DHT22;43683;48.650;9.290;2023-04-06T12:53:28;17.30;29.10
57857;DHT22;43683;48.650;9.290;2023-04-06T12:55:55;17.60;29.00
57857;DHT22;43683;48.650;9.290;2023-04-06T12:58:22;17.60;28.90
57857;DHT22;43683;48.650;9.290;2023-04-06T13:00:49;17.70;28.70
57857;DHT22;43683;48.650;9.290;2023-04-06T13:03:16;17.90;28.70
57857;DHT22;43683;48.650;9.290;2023-04-06T13:05:48;18.20;28.70
57857;DHT22;43683;48.650;9.290;2023-04-06T13:08:14;18.40;28.50
57857;DHT22;43683;48.650;9.290;2023-04-06T13:10:58;18.40;28.60
57857;DHT22;43683;48.650;9.290;2023-04-06T13:13:28;18.40;28.30
57857;DHT22;43683;48.650;9.290;2023-04-06T13:16:02;18.10;28.70
57857;DHT22;43683;48.650;9.290;2023-04-06T13:18:29;18.10;28.70
57857;DHT22;43683;48.650;9.290;2023-04-06T13:20:58;18.20;28.70
57857;DHT22;43683;48.650;9.290;2023-04-06T13:23:25;18.10;28.50
57857;DHT22;43683;48.650;9.290;2023-04-06T13:26:01;18.00;28.70
57857;DHT22;43683;48.650;9.290;2023-04-06T13:28:28;18.10;28.40
57857;DHT22;43683;48.650;9.290;2023-04-06T13:30:54;18.10;28.60
57857;DHT22;43683;48.650;9.290;2023-04-06T13:33:20;18.20;28.60
57857;DHT22;43683;48.650;9.290;2023-04-06T13:35:46;18.40;28.60
57857;DHT22;43683;48.650;9.290;2023-04-06T13:38:13;18.40;28.60
57857;DHT22;43683;48.650;9.290;2023-04-06T13:40:39;18.40;28.60
57857;DHT22;43683;48.650;9.290;2023-04-06T13:43:05;18.30;28.40
57857;DHT22;43683;48.650;9.290;2023-04-06T13:45:31;18.60;28.40
57857;DHT22;43683;48.650;9.290;2023-04-06T13:47:57;18.60;28.20
57857;DHT22;43683;48.650;9.290;2023-04-06T13:50:22;18.50;28.00
57857;DHT22;43683;48.650;9.290;2023-04-06T13:52:48;18.80;28.60
57857;DHT22;43683;48.650;9.290;2023-04-06T13:55:14;19.00;27.80
57857;DHT22;43683;48.650;9.290;2023-04-06T13:57:41;19.00;27.70
57857;DHT22;43683;48.650;9.290;2023-04-06T14:00:07;18.90;27.40
57857;DHT22;43683;48.650;9.290;2023-04-06T14:02:34;18.60;27.50
57857;DHT22;43683;48.650;9.290;2023-04-06T14:04:59;18.50;28.10
57857;DHT22;43683;48.650;9.290;2023-04-06T14:07:25;18.40;28.20
57857;DHT22;43683;48.650;9.290;2023-04-06T14:09:51;18.10;28.30
57857;DHT22;43683;48.650;9.290;2023-04-06T14:12:16;17.60;28.10
57857;DHT22;43683;48.650;9.290;2023-04-06T14:14:42;17.20;28.20
57857;DHT22;43683;48.650;9.290;2023-04-06T14:17:07;17.00;28.30
57857;DHT22;43683;48.650;9.290;2023-04-06T14:19:33;17.00;28.20
57857;DHT22;43683;48.650;9.290;2023-04-06T14:21:59;17.00;27.90
57857;DHT22;43683;48.650;9.290;2023-04-06T14:24:25;16.90;27.80
57857;DHT22;43683;48.650;9.290;2023-04-06T14:26:50;16.90;27.80
57857;DHT22;43683;48.650;9.290;2023-04-06T14:29:16;16.90;27.70
57857;DHT22;43683;48.650;9.290;2023-04-06T14:31:46;16.90;27.70
57857;DHT22;43683;48.650;9.290;2023-04-06T14:34:12;16.80;27.80
57857;DHT22;43683;48.650;9.290;2023-04-06T14:36:37;16.80;28.50
57857;DHT22;43683;48.650;9.290;2023-04-06T14:39:05;17.00;27.90
57857;DHT22;43683;48.650;9.290;2023-04-06T14:41:31;16.90;27.80
57857;DHT22;43683;48.650;9.290;2023-04-06T14:43:57;16.70;28.10
57857;DHT22;43683;48.650;9.290;2023-04-06T14:46:22;16.50;28.30
57857;DHT22;43683;48.650;9.290;2023-04-06T14:48:48;16.40;28.30
57857;DHT22;43683;48.650;9.290;2023-04-06T14:51:13;16.40;28.40
57857;DHT22;43683;48.650;9.290;2023-04-06T14:53:39;16.20;28.30
57857;DHT22;43683;48.650;9.290;2023-04-06T14:56:05;16.30;28.40
57857;DHT22;43683;48.650;9.290;2023-04-06T14:58:31;16.30;28.40
57857;DHT22;43683;48.650;9.290;2023-04-06T15:00:57;16.50;28.70
57857;DHT22;43683;48.650;9.290;2023-04-06T15:03:24;16.70;28.60
57857;DHT22;43683;48.650;9.290;2023-04-06T15:05:51;16.70;28.50
57857;DHT22;43683;48.650;9.290;2023-04-06T15:08:17;16.60;28.50
57857;DHT22;43683;48.650;9.290;2023-04-06T15:10:46;16.60;28.40
57857;DHT22;43683;48.650;9.290;2023-04-06T15:13:11;16.60;28.30
57857;DHT22;43683;48.650;9.290;2023-04-06T15:15:37;16.70;28.30
57857;DHT22;43683;48.650;9.290;2023-04-06T15:18:03;16.70;28.30
57857;DHT22;43683;48.650;9.290;2023-04-06T15:20:29;16.70;28.40
57857;DHT22;43683;48.650;9.290;2023-04-06T15:22:55;16.80;28.50
57857;DHT22;43683;48.650;9.290;2023-04-06T15:25:21;16.80;28.70
57857;DHT22;43683;48.650;9.290;2023-04-06T15:27:47;16.70;28.50
57857;DHT22;43683;48.650;9.290;2023-04-06T15:30:12;16.50;28.70
57857;DHT22;43683;48.650;9.290;2023-04-06T15:32:38;16.40;28.80
57857;DHT22;43683;48.650;9.290;2023-04-06T15:35:10;16.30;28.80
57857;DHT22;43683;48.650;9.290;2023-04-06T15:37:37;16.30;29.30
57857;DHT22;43683;48.650;9.290;2023-04-06T15:40:02;16.30;28.90